Time;durP1;ratioP1;P1;durP2;ratioP2;P2;SDS_P1;SDS_P2;PMS_P1;PMS_P2;Temp;Humidity;BMP_temperature;BMP_pressure;BME280_temperature;BME280_humidity;BME280_pressure;Samples;Min_cycle;Max_cycle;Signal;HPM_P1;HPM_P2
2022/07/16 00:01:23;;;;;;;0.30;0.30;;;16.80;99.90;;;;;;4445484;32;20053;-63
2022/07/16 00:02:38;;;;;;;0.20;0.20;;;16.90;99.90;;;;;;4432568;32;20135;-63
2022/07/16 00:05:04;;;;;;;0.30;0.30;;;16.80;99.90;;;;;;4445208;32;20069;-62
2022/07/16 00:07:30;;;;;;;0.22;0.22;;;16.80;99.90;;;;;;4445542;32;20057;-63
2022/07/16 00:09:55;;;;;;;0.30;0.30;;;16.90;99.90;;;;;;4443675;32;20516;-63
2022/07/16 00:12:21;;;;;;;0.25;0.25;;;16.90;99.90;;;;;;4445427;32;20532;-63
2022/07/16 00:14:46;;;;;;;0.47;0.40;;;16.70;99.90;;;;;;4445291;32;20111;-63
2022/07/16 00:17:12;;;;;;;0.30;0.30;;;16.80;99.90;;;;;;4445316;32;20419;-63
2022/07/16 00:19:37;;;;;;;0.30;0.30;;;16.80;99.90;;;;;;4420822;32;20066;-61
2022/07/16 00:22:03;;;;;;;0.30;0.30;;;16.70;99.90;;;;;;4414638;32;20069;-61
2022/07/16 00:24:28;;;;;;;0.28;0.28;;;16.70;99.90;;;;;;4412396;32;20517;-62
2022/07/16 00:26:54;;;;;;;0.20;0.20;;;16.80;99.90;;;;;;4429486;32;20128;-61
2022/07/16 00:29:21;;;;;;;0.20;0.20;;;16.80;99.90;;;;;;4430112;32;20073;-62
2022/07/16 00:31:48;;;;;;;0.20;0.20;;;16.80;99.90;;;;;;4403292;32;20073;-62
2022/07/16 00:34:14;;;;;;;0.30;0.30;;;16.80;99.90;;;;;;4428452;32;20065;-62
2022/07/16 00:36:40;;;;;;;0.20;0.20;;;16.80;99.90;;;;;;4428669;32;20112;-62
2022/07/16 00:39:08;;;;;;;0.98;0.57;;;16.90;99.90;;;;;;4429511;32;20061;-62
2022/07/16 00:41:35;;;;;;;0.40;0.30;;;16.90;99.90;;;;;;4414933;32;20086;-62
2022/07/16 00:44:03;;;;;;;0.30;0.30;;;16.90;99.90;;;;;;4429448;32;20108;-63
2022/07/16 00:46:29;;;;;;;0.40;0.40;;;16.90;99.90;;;;;;4436361;32;20057;-63
2022/07/16 00:48:55;;;;;;;0.20;0.20;;;16.90;99.90;;;;;;4433862;32;20082;-63
2022/07/16 00:51:22;;;;;;;0.30;0.30;;;16.90;99.90;;;;;;4435314;32;20064;-62
2022/07/16 00:53:48;;;;;;;0.20;0.20;;;16.80;99.90;;;;;;4409051;32;20066;-62
2022/07/16 00:56:14;;;;;;;4.40;1.58;;;16.80;99.90;;;;;;4440599;32;20537;-62
2022/07/16 00:58:42;;;;;;;0.28;0.28;;;16.80;99.90;;;;;;4431164;32;20073;-62
2022/07/16 01:01:08;;;;;;;0.20;0.20;;;16.80;99.90;;;;;;4444884;32;20567;-62
2022/07/16 01:03:35;;;;;;;0.30;0.30;;;16.70;99.90;;;;;;4444934;32;20112;-63
2022/07/16 01:06:02;;;;;;;0.22;0.22;;;16.70;99.90;;;;;;4443608;32;20076;-62
2022/07/16 01:08:27;;;;;;;0.28;0.28;;;16.70;99.90;;;;;;4443742;32;20053;-63
2022/07/16 01:10:54;;;;;;;0.20;0.20;;;16.70;99.90;;;;;;4443212;32;20134;-63
2022/07/16 01:13:21;;;;;;;0.30;0.30;;;16.60;99.90;;;;;;4443994;32;20073;-62
2022/07/16 01:15:47;;;;;;;0.20;0.20;;;16.60;99.90;;;;;;4430575;32;20504;-62
2022/07/16 01:18:12;;;;;;;0.20;0.20;;;16.60;99.90;;;;;;4443892;32;20442;-64
2022/07/16 01:20:38;;;;;;;0.30;0.30;;;16.70;99.90;;;;;;4442011;32;20077;-63
2022/07/16 01:23:04;;;;;;;0.22;0.22;;;16.60;99.90;;;;;;4408617;32;20066;-62
2022/07/16 01:25:30;;;;;;;0.30;0.30;;;16.60;99.90;;;;;;4435553;32;20065;-63
2022/07/16 01:27:55;;;;;;;0.17;0.17;;;16.60;99.90;;;;;;4444104;32;20058;-64
2022/07/16 01:30:21;;;;;;;0.50;0.50;;;16.50;99.90;;;;;;4445021;32;20077;-64
2022/07/16 01:32:46;;;;;;;0.20;0.20;;;16.50;99.90;;;;;;4441947;32;85808;-64
2022/07/16 01:35:12;;;;;;;0.47;0.47;;;16.50;99.90;;;;;;4444913;32;20057;-63
2022/07/16 01:37:37;;;;;;;0.40;0.40;;;16.50;99.90;;;;;;4444106;32;20142;-64
2022/07/16 01:40:03;;;;;;;0.30;0.30;;;16.60;99.90;;;;;;4442074;32;20068;-64
2022/07/16 01:42:29;;;;;;;0.35;0.35;;;16.60;99.90;;;;;;4428782;32;20086;-65
2022/07/16 01:44:55;;;;;;;0.37;0.37;;;16.50;99.90;;;;;;4425484;32;20069;-64
2022/07/16 01:47:20;;;;;;;0.20;0.20;;;16.50;99.90;;;;;;4428659;32;20078;-63
2022/07/16 01:49:46;;;;;;;0.20;0.20;;;16.50;99.90;;;;;;4444660;32;20516;-63
2022/07/16 01:52:14;;;;;;;0.22;0.22;;;16.50;99.90;;;;;;4426851;32;20068;-63
2022/07/16 01:54:45;;;;;;;0.75;0.47;;;16.50;99.90;;;;;;4413363;32;20089;-64
2022/07/16 01:57:11;;;;;;;0.88;0.80;;;16.40;99.90;;;;;;4444432;32;20089;-63
2022/07/16 01:59:37;;;;;;;0.30;0.30;;;16.50;99.90;;;;;;4443441;32;20068;-63
2022/07/16 02:02:02;;;;;;;0.30;0.30;;;16.50;99.90;;;;;;4429302;32;20061;-63
2022/07/16 02:04:28;;;;;;;0.20;0.20;;;16.50;99.90;;;;;;4443682;32;20065;-63
2022/07/16 02:06:53;;;;;;;0.20;0.20;;;16.50;99.90;;;;;;4444256;32;20394;-63
2022/07/16 02:09:19;;;;;;;0.20;0.20;;;16.50;99.90;;;;;;4433420;32;20065;-63
2022/07/16 02:11:45;;;;;;;0.20;0.20;;;16.40;99.90;;;;;;4427083;32;20446;-64
2022/07/16 02:14:10;;;;;;;0.20;0.20;;;16.40;99.90;;;;;;4428419;32;20069;-64
2022/07/16 02:16:36;;;;;;;0.32;0.32;;;16.30;99.90;;;;;;4427667;32;20491;-63
2022/07/16 02:19:01;;;;;;;0.20;0.20;;;16.30;99.90;;;;;;4428379;32;20065;-63
2022/07/16 02:21:26;;;;;;;2.90;1.20;;;16.40;99.90;;;;;;4421936;32;20061;-63
2022/07/16 02:23:52;;;;;;;0.30;0.30;;;16.40;99.90;;;;;;4396832;32;20070;-63
2022/07/16 02:26:18;;;;;;;0.20;0.20;;;16.40;99.90;;;;;;4426772;32;20058;-63
2022/07/16 02:28:43;;;;;;;0.40;0.40;;;16.50;99.90;;;;;;4417522;32;20503;-64
2022/07/16 02:31:09;;;;;;;0.20;0.20;;;16.50;99.90;;;;;;4431083;32;20074;-63
2022/07/16 02:33:34;;;;;;;0.20;0.20;;;16.40;99.90;;;;;;4429891;32;20074;-63
2022/07/16 02:36:00;;;;;;;0.20;0.20;;;16.50;99.90;;;;;;4430595;32;20422;-63
2022/07/16 02:38:25;;;;;;;0.20;0.20;;;16.30;99.90;;;;;;4439029;32;20072;-63
2022/07/16 02:40:51;;;;;;;0.28;0.28;;;16.30;99.90;;;;;;4445218;32;20130;-63
2022/07/16 02:43:16;;;;;;;0.30;0.30;;;16.20;99.90;;;;;;4445909;32;20078;-63
2022/07/16 02:45:42;;;;;;;0.20;0.20;;;16.20;99.90;;;;;;4444078;32;20095;-63
2022/07/16 02:48:10;;;;;;;0.20;0.20;;;16.20;99.90;;;;;;4416538;32;20426;-63
2022/07/16 02:50:35;;;;;;;0.20;0.20;;;16.30;99.90;;;;;;4427978;32;20601;-63
2022/07/16 02:53:01;;;;;;;0.20;0.20;;;16.30;99.90;;;;;;4408212;32;20077;-61
2022/07/16 02:55:27;;;;;;;0.20;0.20;;;16.20;99.90;;;;;;4420816;32;20078;-64
2022/07/16 02:57:53;;;;;;;0.40;0.40;;;16.20;99.90;;;;;;4429752;32;20418;-64
2022/07/16 03:00:19;;;;;;;0.30;0.30;;;16.30;99.90;;;;;;4416217;32;20085;-64
2022/07/16 03:02:45;;;;;;;0.28;0.28;;;16.40;99.90;;;;;;4416830;32;20066;-64
2022/07/16 03:05:11;;;;;;;16.35;0.77;;;16.30;99.90;;;;;;4416281;32;20086;-63
2022/07/16 03:07:37;;;;;;;0.30;0.30;;;16.30;99.90;;;;;;4433179;32;20081;-63
2022/07/16 03:10:05;;;;;;;0.20;0.20;;;16.30;99.90;;;;;;4444835;32;20061;-63
2022/07/16 03:12:30;;;;;;;0.30;0.30;;;16.20;99.90;;;;;;4445938;32;20089;-63
2022/07/16 03:14:57;;;;;;;2.08;0.40;;;16.10;99.90;;;;;;4445296;32;20069;-63
2022/07/16 03:17:22;;;;;;;0.37;0.37;;;16.10;99.90;;;;;;4445924;32;20431;-63
2022/07/16 03:19:47;;;;;;;0.30;0.30;;;16.20;99.90;;;;;;4445028;32;20111;-63
2022/07/16 03:22:13;;;;;;;0.20;0.20;;;16.10;99.90;;;;;;4429980;32;20086;-63
2022/07/16 03:24:39;;;;;;;0.28;0.28;;;16.10;99.90;;;;;;4430054;32;20106;-63
2022/07/16 03:27:04;;;;;;;0.20;0.20;;;16.10;99.90;;;;;;4444671;32;20073;-64
2022/07/16 03:29:30;;;;;;;0.30;0.30;;;16.10;99.90;;;;;;4444753;32;20061;-63
2022/07/16 03:31:55;;;;;;;0.22;0.22;;;16.00;99.90;;;;;;4445377;32;20077;-63
2022/07/16 03:34:21;;;;;;;0.22;0.22;;;16.10;99.90;;;;;;4445677;32;20065;-63
2022/07/16 03:36:46;;;;;;;1.00;0.35;;;16.20;99.90;;;;;;4445256;32;20564;-63
2022/07/16 03:39:12;;;;;;;0.20;0.20;;;16.10;99.90;;;;;;4430638;32;20082;-64
2022/07/16 03:41:38;;;;;;;0.20;0.20;;;16.10;99.90;;;;;;4429707;32;20081;-63
2022/07/16 03:44:06;;;;;;;0.30;0.30;;;16.00;99.90;;;;;;4428922;32;20524;-63
2022/07/16 03:46:32;;;;;;;0.30;0.30;;;16.00;99.90;;;;;;4429154;32;20073;-63
2022/07/16 03:48:58;;;;;;;0.30;0.30;;;16.10;99.90;;;;;;4444586;32;20085;-62
2022/07/16 03:51:24;;;;;;;0.30;0.30;;;16.10;99.90;;;;;;4421161;32;20437;-63
2022/07/16 03:53:50;;;;;;;1.10;0.90;;;16.00;99.90;;;;;;4426396;32;20066;-63
2022/07/16 03:56:16;;;;;;;0.37;0.37;;;16.00;99.90;;;;;;4426735;32;20119;-63
2022/07/16 03:58:41;;;;;;;0.30;0.30;;;16.00;99.90;;;;;;4445490;32;20123;-63
2022/07/16 04:01:08;;;;;;;0.20;0.20;;;16.00;99.90;;;;;;4445513;32;20061;-63
2022/07/16 04:03:35;;;;;;;0.57;0.57;;;16.00;99.90;;;;;;4445595;32;20520;-64
2022/07/16 04:06:01;;;;;;;0.30;0.30;;;16.00;99.90;;;;;;4417946;32;20129;-63
2022/07/16 04:08:26;;;;;;;0.30;0.30;;;16.00;99.90;;;;;;4429512;32;20096;-63
2022/07/16 04:10:52;;;;;;;0.20;0.20;;;15.90;99.90;;;;;;4443779;32;20488;-63
2022/07/16 04:13:18;;;;;;;0.20;0.20;;;15.90;99.90;;;;;;4443622;32;20524;-63
2022/07/16 04:15:43;;;;;;;0.20;0.20;;;15.90;99.90;;;;;;4430256;32;20370;-63
2022/07/16 04:18:09;;;;;;;0.15;0.15;;;15.90;99.90;;;;;;4444261;32;20065;-63
2022/07/16 04:20:34;;;;;;;0.30;0.30;;;15.90;99.90;;;;;;4443472;32;20073;-63
2022/07/16 04:23:00;;;;;;;0.40;0.40;;;15.90;99.90;;;;;;4423798;32;20090;-63
2022/07/16 04:25:26;;;;;;;1.27;0.85;;;16.00;99.90;;;;;;4398606;32;20072;-63
2022/07/16 04:27:51;;;;;;;0.20;0.20;;;16.10;99.90;;;;;;4442465;32;20077;-63
2022/07/16 04:30:17;;;;;;;0.20;0.20;;;16.20;99.90;;;;;;4444532;32;20068;-63
2022/07/16 04:32:42;;;;;;;0.28;0.28;;;16.00;99.90;;;;;;4431461;32;20085;-64
2022/07/16 04:35:10;;;;;;;0.30;0.30;;;16.00;99.90;;;;;;4443966;32;20583;-64
2022/07/16 04:37:35;;;;;;;0.20;0.20;;;16.00;99.90;;;;;;4430141;32;20069;-63
2022/07/16 04:40:03;;;;;;;0.30;0.30;;;16.00;99.90;;;;;;4443725;32;20068;-63
2022/07/16 04:42:28;;;;;;;0.20;0.20;;;16.00;99.90;;;;;;4443439;32;20061;-63
2022/07/16 04:44:54;;;;;;;0.40;0.40;;;16.10;99.90;;;;;;4443978;32;20565;-63
2022/07/16 04:47:19;;;;;;;0.15;0.15;;;16.10;99.90;;;;;;4431821;32;20062;-63
2022/07/16 04:49:45;;;;;;;0.20;0.20;;;16.10;99.90;;;;;;4428651;32;20072;-63
2022/07/16 04:52:10;;;;;;;0.22;0.22;;;16.10;99.90;;;;;;4413471;32;20421;-63
2022/07/16 04:54:35;;;;;;;3.25;1.40;;;16.10;99.90;;;;;;4412722;32;20176;-63
2022/07/16 04:57:01;;;;;;;0.52;0.43;;;16.10;99.90;;;;;;4436612;32;20072;-63
2022/07/16 04:59:26;;;;;;;0.40;0.40;;;16.10;99.90;;;;;;4443943;32;20076;-63
2022/07/16 05:01:52;;;;;;;0.20;0.20;;;16.10;99.90;;;;;;4444006;32;20057;-63
2022/07/16 05:04:18;;;;;;;1.35;0.95;;;16.10;99.90;;;;;;4443862;32;20068;-63
2022/07/16 05:06:43;;;;;;;0.28;0.28;;;16.20;99.90;;;;;;4444269;32;20256;-64
2022/07/16 05:09:09;;;;;;;0.30;0.30;;;16.20;99.90;;;;;;4429935;32;20069;-64
2022/07/16 05:11:35;;;;;;;0.20;0.20;;;16.30;99.90;;;;;;4430907;32;20462;-64
2022/07/16 05:14:01;;;;;;;0.30;0.30;;;16.30;99.90;;;;;;4444672;32;20065;-64
2022/07/16 05:16:26;;;;;;;0.20;0.20;;;16.30;99.90;;;;;;4443632;32;20124;-64
2022/07/16 05:18:52;;;;;;;0.25;0.25;;;16.40;99.90;;;;;;4445071;32;20633;-64
2022/07/16 05:21:17;;;;;;;0.55;0.55;;;16.40;99.90;;;;;;4436303;32;20214;-63
2022/07/16 05:23:43;;;;;;;0.22;0.22;;;16.50;99.90;;;;;;4408773;32;20532;-63
2022/07/16 05:26:09;;;;;;;0.40;0.30;;;16.50;99.90;;;;;;4437474;32;20115;-64
2022/07/16 05:28:35;;;;;;;0.30;0.30;;;16.40;99.90;;;;;;4428344;32;20086;-64
2022/07/16 05:31:01;;;;;;;0.22;0.22;;;16.50;99.90;;;;;;4428262;32;20066;-64
2022/07/16 05:33:26;;;;;;;0.22;0.22;;;16.50;99.90;;;;;;4414661;32;20073;-64
2022/07/16 05:35:52;;;;;;;0.40;0.40;;;16.60;99.90;;;;;;4428853;32;20076;-64
2022/07/16 05:38:17;;;;;;;0.20;0.20;;;16.60;99.90;;;;;;4428528;32;20549;-64
2022/07/16 05:40:43;;;;;;;0.30;0.30;;;16.60;99.90;;;;;;4428728;32;20132;-63
2022/07/16 05:43:09;;;;;;;0.20;0.20;;;16.70;99.90;;;;;;4414083;32;20528;-63
2022/07/16 05:45:34;;;;;;;0.30;0.30;;;16.70;99.90;;;;;;4421099;32;20065;-63
2022/07/16 05:48:00;;;;;;;0.25;0.25;;;16.70;99.90;;;;;;4428172;32;20427;-63
2022/07/16 05:50:25;;;;;;;0.20;0.20;;;16.80;99.90;;;;;;4426845;32;20086;-63
2022/07/16 05:52:51;;;;;;;0.20;0.20;;;16.80;99.90;;;;;;4408245;32;20113;-63
2022/07/16 05:55:17;;;;;;;0.30;0.30;;;16.80;99.90;;;;;;4404589;32;20502;-63
2022/07/16 05:57:42;;;;;;;0.30;0.30;;;16.90;99.90;;;;;;4441449;32;20073;-63
2022/07/16 06:00:10;;;;;;;0.20;0.20;;;16.90;99.90;;;;;;4431617;32;20086;-64
2022/07/16 06:02:37;;;;;;;0.20;0.20;;;16.90;99.90;;;;;;4431648;32;20125;-64
2022/07/16 06:05:02;;;;;;;0.30;0.30;;;16.90;99.90;;;;;;4431714;32;20556;-63
2022/07/16 06:07:28;;;;;;;0.28;0.28;;;17.00;99.90;;;;;;4430564;32;20536;-63
2022/07/16 06:09:53;;;;;;;0.30;0.30;;;17.00;99.90;;;;;;4430105;32;20065;-64
2022/07/16 06:12:19;;;;;;;0.30;0.30;;;16.90;99.90;;;;;;4431368;32;20081;-63
2022/07/16 06:14:44;;;;;;;0.62;0.62;;;16.90;99.90;;;;;;4431343;32;20073;-63
2022/07/16 06:17:10;;;;;;;0.20;0.20;;;16.90;99.90;;;;;;4431203;32;20474;-63
2022/07/16 06:19:35;;;;;;;0.20;0.20;;;16.90;99.90;;;;;;4431614;32;20065;-63
2022/07/16 06:22:02;;;;;;;0.20;0.20;;;16.90;99.90;;;;;;4417677;32;20069;-63
2022/07/16 06:24:27;;;;;;;0.20;0.20;;;16.90;99.90;;;;;;4414388;32;20420;-63
2022/07/16 06:26:53;;;;;;;0.52;0.52;;;16.90;99.90;;;;;;4437520;32;20065;-63
2022/07/16 06:29:18;;;;;;;0.30;0.30;;;16.80;99.90;;;;;;4445837;32;20060;-63
2022/07/16 06:31:44;;;;;;;2.25;1.10;;;16.70;99.90;;;;;;4446515;32;20092;-63
2022/07/16 06:34:11;;;;;;;0.20;0.20;;;16.50;99.90;;;;;;4446213;32;20068;-64
2022/07/16 06:36:36;;;;;;;1.05;0.55;;;16.40;99.90;;;;;;4432495;32;20123;-63
2022/07/16 06:39:03;;;;;;;0.20;0.20;;;16.20;99.90;;;;;;4431559;32;20476;-63
2022/07/16 06:41:29;;;;;;;0.40;0.40;;;16.00;99.90;;;;;;4446490;32;20089;-63
2022/07/16 06:43:55;;;;;;;0.30;0.30;;;15.90;99.90;;;;;;4431858;32;20080;-63
2022/07/16 06:46:21;;;;;;;0.22;0.22;;;15.70;99.90;;;;;;4417305;32;20481;-63
2022/07/16 06:48:46;;;;;;;3.50;0.68;;;15.60;99.90;;;;;;4431172;32;20070;-63
2022/07/16 06:51:13;;;;;;;0.37;0.37;;;15.40;99.90;;;;;;4422658;32;20573;-63
2022/07/16 06:53:38;;;;;;;0.30;0.30;;;15.30;99.90;;;;;;4410803;32;20811;-62
2022/07/16 06:56:06;;;;;;;22.15;0.60;;;15.20;99.90;;;;;;4429104;32;20097;-62
2022/07/16 06:58:32;;;;;;;0.32;0.32;;;15.10;99.90;;;;;;4432839;32;20069;-62
2022/07/16 07:00:57;;;;;;;0.52;0.52;;;15.20;99.90;;;;;;4446319;32;20074;-63
2022/07/16 07:03:22;;;;;;;0.88;0.60;;;15.10;99.90;;;;;;4445274;32;20088;-62
2022/07/16 07:05:48;;;;;;;0.30;0.30;;;15.00;99.90;;;;;;4430357;32;20382;-62
2022/07/16 07:08:14;;;;;;;0.40;0.40;;;15.00;99.90;;;;;;4446394;32;20084;-62
2022/07/16 07:10:39;;;;;;;4.57;0.35;;;15.00;99.90;;;;;;4431298;32;20143;-62
2022/07/16 07:13:05;;;;;;;0.30;0.30;;;15.00;99.90;;;;;;4445707;32;20073;-62
2022/07/16 07:15:30;;;;;;;0.20;0.20;;;15.00;99.90;;;;;;4445212;32;20129;-62
2022/07/16 07:17:55;;;;;;;0.20;0.20;;;15.10;99.90;;;;;;4445058;32;20086;-62
2022/07/16 07:20:21;;;;;;;0.30;0.30;;;15.20;99.90;;;;;;4445596;32;20069;-62
2022/07/16 07:22:46;;;;;;;0.30;0.30;;;15.40;99.90;;;;;;4411245;32;20072;-62
2022/07/16 07:25:12;;;;;;;0.40;0.40;;;15.50;99.90;;;;;;4433497;32;20081;-62
2022/07/16 07:27:38;;;;;;;0.30;0.30;;;15.60;99.90;;;;;;4431077;32;20112;-62
2022/07/16 07:30:04;;;;;;;0.37;0.37;;;15.70;99.90;;;;;;4430930;32;20509;-62
2022/07/16 07:32:30;;;;;;;0.40;0.40;;;15.80;99.90;;;;;;4430684;32;20454;-62
2022/07/16 07:34:55;;;;;;;0.20;0.20;;;15.90;99.90;;;;;;4430455;32;20070;-62
2022/07/16 07:37:21;;;;;;;0.30;0.30;;;15.90;99.90;;;;;;4430057;32;20085;-62
2022/07/16 07:39:46;;;;;;;0.30;0.30;;;15.90;99.90;;;;;;4430302;32;20069;-62
2022/07/16 07:42:12;;;;;;;1.42;0.57;;;16.10;99.90;;;;;;4429680;32;20072;-61
2022/07/16 07:44:38;;;;;;;0.30;0.30;;;16.30;99.90;;;;;;4432050;32;20096;-62
2022/07/16 07:47:04;;;;;;;21.02;1.48;;;16.40;99.90;;;;;;4434198;32;20155;-62
2022/07/16 07:49:30;;;;;;;0.40;0.40;;;16.50;99.90;;;;;;4429719;32;20078;-64
2022/07/16 07:51:55;;;;;;;0.75;0.75;;;16.40;99.90;;;;;;4416385;32;20115;-62
2022/07/16 07:54:21;;;;;;;0.50;0.50;;;16.30;99.90;;;;;;4410483;32;20602;-61
2022/07/16 07:56:47;;;;;;;0.20;0.20;;;16.30;99.90;;;;;;4437738;32;20069;-62
2022/07/16 07:59:13;;;;;;;1.12;1.05;;;16.30;99.90;;;;;;4444930;32;20065;-63
2022/07/16 08:01:38;;;;;;;1.02;0.40;;;16.50;99.90;;;;;;4445679;32;20084;-62
2022/07/16 08:04:04;;;;;;;0.35;0.35;;;16.60;99.90;;;;;;4446031;32;20069;-62
2022/07/16 08:06:30;;;;;;;0.30;0.30;;;16.70;99.90;;;;;;4444111;32;20082;-63
2022/07/16 08:08:55;;;;;;;0.30;0.30;;;16.80;99.90;;;;;;4431722;32;20061;-62
2022/07/16 08:11:21;;;;;;;0.20;0.20;;;17.00;99.90;;;;;;4444272;32;20072;-62
2022/07/16 08:13:46;;;;;;;0.40;0.40;;;17.20;99.90;;;;;;4445482;32;20061;-63
2022/07/16 08:16:12;;;;;;;0.40;0.40;;;17.40;99.90;;;;;;4445680;32;20073;-62
2022/07/16 08:18:37;;;;;;;0.47;0.47;;;17.60;99.90;;;;;;4444718;32;20065;-62
2022/07/16 08:21:03;;;;;;;0.55;0.55;;;17.40;99.90;;;;;;4439020;32;20089;-62
2022/07/16 08:25:44;;;;;;;0.20;0.20;;;17.30;99.90;;;;;;4424918;32;20795;-62
2022/07/16 08:26:13;;;;;;;0.20;0.20;;;17.30;99.90;;;;;;4421717;32;20124;-62
2022/07/16 08:28:41;;;;;;;0.50;0.50;;;17.40;99.90;;;;;;4429952;32;20069;-62
2022/07/16 08:31:07;;;;;;;0.82;0.45;;;17.50;99.90;;;;;;4428733;32;20073;-62
2022/07/16 08:33:32;;;;;;;0.40;0.40;;;17.50;99.90;;;;;;4414895;32;20062;-62
2022/07/16 08:36:00;;;;;;;0.25;0.25;;;17.70;99.90;;;;;;4429422;32;20457;-63
2022/07/16 08:38:26;;;;;;;0.20;0.20;;;17.90;99.90;;;;;;4429574;32;20129;-63
2022/07/16 08:40:54;;;;;;;0.30;0.30;;;18.30;99.90;;;;;;4429476;32;20072;-62
2022/07/16 08:43:20;;;;;;;0.30;0.30;;;18.50;99.90;;;;;;4428806;32;20074;-63
2022/07/16 08:45:46;;;;;;;0.30;0.30;;;18.80;99.90;;;;;;4435852;32;20419;-63
2022/07/16 08:48:13;;;;;;;0.20;0.20;;;18.80;99.90;;;;;;4416190;32;20060;-62
2022/07/16 08:50:38;;;;;;;0.30;0.30;;;18.60;99.90;;;;;;4426027;32;20564;-63
2022/07/16 08:53:06;;;;;;;0.50;0.50;;;18.60;99.90;;;;;;4394046;32;20079;-63
2022/07/16 08:55:33;;;;;;;0.25;0.25;;;18.50;99.90;;;;;;4422631;32;20060;-63
2022/07/16 08:57:59;;;;;;;0.30;0.30;;;18.30;99.90;;;;;;4444565;32;20065;-62
2022/07/16 09:00:25;;;;;;;0.28;0.28;;;18.20;99.90;;;;;;4445351;32;20060;-62
2022/07/16 09:02:51;;;;;;;0.30;0.30;;;18.10;99.90;;;;;;4443812;32;20065;-63
2022/07/16 09:05:16;;;;;;;0.20;0.20;;;18.50;99.90;;;;;;4429962;32;20060;-61
2022/07/16 09:07:42;;;;;;;1.40;0.57;;;18.70;99.90;;;;;;4444633;32;20208;-63
2022/07/16 09:10:09;;;;;;;0.47;0.40;;;18.90;99.90;;;;;;4444512;32;20482;-63
2022/07/16 09:12:38;;;;;;;0.20;0.20;;;19.10;99.90;;;;;;4429586;32;20073;-63
2022/07/16 09:15:26;;;;;;;0.40;0.40;;;19.10;99.90;;;;;;4431315;32;20076;-64
2022/07/16 09:18:08;;;;;;;0.20;0.20;;;19.30;99.90;;;;;;4433063;32;20072;-63
2022/07/16 09:20:34;;;;;;;0.20;0.20;;;19.40;99.90;;;;;;4442909;32;20085;-62
2022/07/16 09:22:59;;;;;;;0.20;0.20;;;19.50;99.90;;;;;;4408797;32;20073;-63
2022/07/16 09:25:25;;;;;;;0.30;0.30;;;19.60;99.90;;;;;;4431247;32;20073;-63
2022/07/16 09:27:59;;;;;;;0.20;0.20;;;19.60;99.90;;;;;;4429547;32;20078;-63
2022/07/16 09:30:27;;;;;;;0.28;0.28;;;19.50;99.90;;;;;;4431364;32;20084;-64
2022/07/16 09:32:53;;;;;;;0.40;0.40;;;19.70;99.90;;;;;;4431270;32;20073;-65
2022/07/16 09:35:18;;;;;;;0.30;0.30;;;19.90;99.90;;;;;;4418455;32;20128;-63
2022/07/16 09:37:54;;;;;;;0.20;0.20;;;19.70;99.90;;;;;;4417495;32;20567;-63
2022/07/16 09:40:42;;;;;;;0.30;0.30;;;19.50;99.90;;;;;;4417149;32;20072;-64
2022/07/16 09:43:18;;;;;;;0.30;0.30;;;19.40;99.90;;;;;;4420547;32;20154;-64
2022/07/16 09:45:46;;;;;;;0.20;0.20;;;19.30;99.90;;;;;;4437456;32;20156;-63
2022/07/16 09:48:35;;;;;;;0.30;0.30;;;19.50;99.90;;;;;;4432351;32;20081;-64
2022/07/16 09:51:25;;;;;;;0.28;0.28;;;19.80;99.90;;;;;;4402369;32;20060;-63
2022/07/16 09:53:51;;;;;;;0.80;0.40;;;20.00;99.70;;;;;;4400316;32;20143;-63
2022/07/16 09:56:20;;;;;;;0.30;0.30;;;20.30;99.90;;;;;;4436413;32;20500;-63
2022/07/16 09:58:49;;;;;;;0.35;0.35;;;20.50;99.00;;;;;;4447032;32;20069;-63
2022/07/16 10:01:16;;;;;;;0.25;0.25;;;20.70;99.40;;;;;;4432416;32;20073;-63
2022/07/16 10:03:42;;;;;;;0.20;0.20;;;20.70;96.90;;;;;;4433399;32;20057;-63
2022/07/16 10:06:08;;;;;;;13.15;1.40;;;20.80;96.60;;;;;;4446400;32;20089;-63
2022/07/16 10:08:34;;;;;;;0.20;0.20;;;20.70;95.90;;;;;;4445777;32;20117;-63
2022/07/16 10:11:00;;;;;;;0.20;0.20;;;20.70;95.40;;;;;;4433449;32;20520;-63
2022/07/16 10:13:27;;;;;;;0.40;0.40;;;20.90;94.90;;;;;;4445421;32;20073;-63
2022/07/16 10:15:52;;;;;;;0.20;0.20;;;21.20;94.60;;;;;;4433405;32;20139;-63
2022/07/16 10:18:40;;;;;;;0.30;0.30;;;21.60;94.40;;;;;;4432813;32;20521;-63
2022/07/16 10:21:09;;;;;;;0.20;0.20;;;21.80;93.70;;;;;;4428715;32;20094;-63
2022/07/16 10:23:36;;;;;;;0.30;0.30;;;21.50;93.80;;;;;;4425548;32;20080;-63
2022/07/16 10:26:08;;;;;;;0.20;0.20;;;21.30;94.00;;;;;;4432174;32;20123;-63
2022/07/16 10:28:39;;;;;;;0.30;0.30;;;20.90;93.80;;;;;;4431341;32;20057;-63
2022/07/16 10:31:41;;;;;;;0.40;0.40;;;21.10;95.00;;;;;;4430814;32;20544;-63
2022/07/16 10:34:16;;;;;;;0.20;0.20;;;21.50;94.60;;;;;;4421572;32;20073;-63
2022/07/16 10:36:46;;;;;;;0.20;0.20;;;21.80;94.20;;;;;;4429811;32;20430;-63
2022/07/16 10:39:15;;;;;;;0.20;0.20;;;22.30;93.90;;;;;;4430203;32;20061;-63
2022/07/16 10:41:50;;;;;;;0.20;0.20;;;22.70;93.50;;;;;;4417744;32;20419;-64
2022/07/16 10:44:16;;;;;;;0.15;0.15;;;22.40;93.60;;;;;;4431365;32;20058;-64
2022/07/16 10:46:59;;;;;;;0.20;0.20;;;22.00;92.50;;;;;;4437372;32;20073;-64
2022/07/16 10:49:27;;;;;;;0.10;0.10;;;21.40;93.50;;;;;;4417470;32;20120;-63
2022/07/16 10:51:55;;;;;;;0.20;0.20;;;20.90;94.90;;;;;;4404560;32;20078;-63
2022/07/16 10:54:21;;;;;;;0.35;0.35;;;20.60;94.50;;;;;;4399015;32;20455;-63
2022/07/16 10:56:50;;;;;;;0.20;0.20;;;20.80;94.40;;;;;;4429039;32;20069;-63
2022/07/16 10:59:19;;;;;;;0.20;0.20;;;21.00;94.30;;;;;;4432401;32;20120;-63
2022/07/16 11:01:48;;;;;;;0.20;0.20;;;21.20;94.20;;;;;;4446448;32;20528;-63
2022/07/16 11:04:14;;;;;;;0.20;0.20;;;21.40;93.90;;;;;;4446795;32;20081;-63
2022/07/16 11:06:46;;;;;;;0.20;0.20;;;21.90;92.90;;;;;;4431747;32;20073;-63
2022/07/16 11:09:12;;;;;;;0.20;0.20;;;21.80;92.40;;;;;;4446255;32;20186;-63
2022/07/16 11:11:40;;;;;;;0.22;0.22;;;21.70;92.90;;;;;;4446297;32;20418;-63
2022/07/16 11:14:08;;;;;;;0.20;0.20;;;21.60;92.80;;;;;;4446172;32;20077;-64
2022/07/16 11:16:35;;;;;;;0.50;0.50;;;21.30;92.60;;;;;;4431519;32;20080;-64
2022/07/16 11:19:04;;;;;;;0.25;0.25;;;21.00;92.50;;;;;;4430200;32;20085;-63
2022/07/16 11:21:31;;;;;;;0.30;0.30;;;20.90;92.60;;;;;;4420636;32;20061;-63
2022/07/16 11:24:00;;;;;;;0.30;0.30;;;21.00;92.50;;;;;;4396384;32;20085;-63
2022/07/16 11:26:27;;;;;;;0.40;0.40;;;21.40;92.50;;;;;;4428337;32;20081;-63
2022/07/16 11:28:56;;;;;;;0.20;0.20;;;22.00;92.10;;;;;;4416005;32;20081;-63
2022/07/16 11:31:25;;;;;;;0.32;0.32;;;22.40;91.30;;;;;;4416043;32;20062;-63
2022/07/16 11:33:53;;;;;;;0.20;0.20;;;22.10;90.30;;;;;;4430995;32;20514;-63
2022/07/16 11:36:19;;;;;;;0.30;0.30;;;22.00;91.50;;;;;;4403913;32;20081;-63
2022/07/16 11:38:46;;;;;;;0.15;0.15;;;21.90;90.70;;;;;;4429376;32;20072;-64
2022/07/16 11:41:12;;;;;;;0.20;0.20;;;21.80;91.20;;;;;;4404359;32;20064;-63
2022/07/16 11:43:37;;;;;;;0.20;0.20;;;22.20;90.20;;;;;;4429162;32;20213;-63
2022/07/16 11:46:03;;;;;;;0.20;0.20;;;23.00;88.90;;;;;;4436416;32;20076;-63
2022/07/16 11:48:37;;;;;;;8.68;1.50;;;23.60;85.60;;;;;;4415557;32;20475;-63
2022/07/16 11:51:08;;;;;;;0.45;0.40;;;24.30;82.00;;;;;;4409392;32;20058;-63
2022/07/16 11:53:36;;;;;;;0.10;0.10;;;24.10;79.30;;;;;;4381713;32;20070;-63
2022/07/16 11:56:02;;;;;;;0.15;0.15;;;24.10;78.90;;;;;;4410950;32;20129;-64
2022/07/16 11:58:28;;;;;;;0.10;0.10;;;23.10;80.40;;;;;;4429129;32;20069;-64
2022/07/16 12:00:54;;;;;;;0.10;0.10;;;23.10;82.20;;;;;;4429162;32;20124;-64
2022/07/16 12:03:19;;;;;;;0.68;0.60;;;23.80;78.90;;;;;;4415786;32;20074;-64
2022/07/16 12:05:45;;;;;;;0.20;0.20;;;24.10;76.60;;;;;;4429747;32;20117;-64
2022/07/16 12:08:11;;;;;;;0.10;0.10;;;24.70;75.80;;;;;;4415527;32;20077;-64
2022/07/16 12:10:37;;;;;;;0.30;0.30;;;25.10;74.40;;;;;;4416214;32;20074;-64
2022/07/16 12:13:05;;;;;;;0.00;0.00;;;25.60;70.30;;;;;;4430230;32;20525;-64
2022/07/16 12:15:52;;;;;;;0.00;0.00;;;25.60;68.50;;;;;;4422655;32;20127;-64
2022/07/16 12:18:18;;;;;;;0.17;0.17;;;26.00;68.10;;;;;;4443764;32;20525;-64
2022/07/16 12:20:43;;;;;;;0.20;0.17;;;25.90;69.20;;;;;;4441737;32;20073;-63
2022/07/16 12:23:12;;;;;;;0.05;0.05;;;26.20;69.90;;;;;;4411089;32;20061;-63
2022/07/16 12:25:39;;;;;;;2.65;0.15;;;25.60;71.70;;;;;;4423705;32;20088;-63
2022/07/16 12:28:08;;;;;;;0.30;0.22;;;25.60;67.30;;;;;;4444949;32;20074;-64
2022/07/16 12:30:51;;;;;;;0.00;0.00;;;26.10;67.70;;;;;;4445294;32;20081;-64
2022/07/16 12:33:19;;;;;;;0.00;0.00;;;26.70;66.20;;;;;;4419436;32;20130;-64
2022/07/16 12:35:48;;;;;;;0.10;0.10;;;25.90;67.00;;;;;;4444076;32;20072;-64
2022/07/16 12:38:37;;;;;;;0.10;0.10;;;25.20;68.60;;;;;;4435298;32;20125;-63
2022/07/16 12:41:03;;;;;;;0.10;0.10;;;24.70;70.20;;;;;;4418875;32;20078;-63
2022/07/16 12:43:29;;;;;;;0.32;0.32;;;24.20;71.60;;;;;;4403238;32;20058;-63